Pope Air Force Base Fayetteville US
ICAO: KPOB
IATA: POB
Category: Medium
Scheduled Services: No

Elevation: 217 ft
TransAlt. 18000 ft.

Airport Communications:
FAYETTEVILLE APP/DEP:125.175
COMD POST:134.1
ATIS:132.3
CLNC DEL:27.58
GND:124.55
PMSV METRO:34.46
PTD:37.22
TWR:135.025

KPOB Zoom In..

If you have problems with the map follow the link
https://www.worldairports.se/pages/airport.php?
ICAO=KPOB

Runways:

(A) RW 05 length 7501 ft width 150 ft
---- / hdg 48

(B) RW 23 length 7501 ft width 150 ft
ILS 110.90 / hdg 228

Location; KPOB
Day. 18 / Time. 11.56 Zulu
* Altimeter: 30.55
* Temperature: 03° c. 37.4°f.
* Wind from: 130° Speed 06 kn.
Dewpoint: -05° c.
Visibility: 10 Statute Miles.
Clouds: Broken 1000 ft.
Clouds: Overcast 14000 ft.

KPOB 181156Z AUTO 13006KT 10SM BKN100 OVC140 03/M05 A3055 RMK AO2 SLP350 T00291053 10042 20029 57021 $


Wind From 130°
Speed 06 kn.

 
 
jpsmedia worldairports.se 2020   terms of use